createdAt,value
2023-05-01T00:01:05.570Z,8.90
2023-05-01T00:03:34.193Z,8.77
2023-05-01T00:06:05.926Z,8.97
2023-05-01T00:08:33.496Z,8.97
2023-05-01T00:11:11.693Z,8.96
2023-05-01T00:13:39.428Z,8.72
2023-05-01T00:16:13.660Z,8.81
2023-05-01T00:18:45.190Z,8.79
2023-05-01T00:21:40.858Z,8.93
2023-05-01T00:24:33.062Z,8.96
2023-05-01T00:27:00.384Z,8.70
2023-05-01T00:29:28.269Z,8.84
2023-05-01T00:31:55.979Z,8.90
2023-05-01T00:37:49.957Z,8.94
2023-05-01T00:40:24.770Z,9.03
2023-05-01T00:42:52.891Z,8.82
2023-05-01T00:45:20.759Z,8.94
2023-05-01T00:47:48.570Z,8.75
2023-05-01T00:50:16.095Z,8.70
2023-05-01T00:52:43.736Z,8.64
2023-05-01T00:55:11.195Z,8.63
2023-05-01T00:57:38.571Z,8.42
2023-05-01T01:00:11.874Z,8.53
2023-05-01T01:02:39.330Z,8.59
2023-05-01T01:05:07.157Z,8.55
2023-05-01T01:08:19.010Z,8.61
2023-05-01T01:11:31.778Z,8.69
2023-05-01T01:14:09.442Z,8.71
2023-05-01T01:16:49.066Z,8.70
2023-05-01T01:19:19.493Z,8.64
2023-05-01T01:21:57.903Z,8.36
2023-05-01T01:24:59.402Z,8.45
2023-05-01T01:27:42.249Z,8.39
2023-05-01T01:30:32.394Z,8.38
2023-05-01T01:33:22.717Z,8.39
2023-05-01T01:36:05.555Z,8.17
2023-05-01T01:38:48.720Z,8.17
2023-05-01T01:41:28.047Z,8.20
2023-05-01T01:44:22.997Z,8.53
2023-05-01T01:46:53.501Z,8.50
2023-05-01T01:49:24.897Z,8.60
2023-05-01T01:51:53.888Z,8.62
2023-05-01T01:54:27.481Z,8.56
2023-05-01T01:56:58.595Z,8.59
2023-05-01T01:59:30.804Z,8.74
2023-05-01T02:04:47.380Z,8.62
2023-05-01T02:07:16.799Z,8.87
2023-05-01T02:09:46.365Z,8.84
2023-05-01T02:15:57.256Z,9.04
2023-05-01T02:18:29.247Z,9.06
2023-05-01T02:20:59.073Z,9.16
2023-05-01T02:24:11.237Z,9.24
2023-05-01T02:26:43.405Z,9.27
2023-05-01T02:29:11.890Z,9.24
2023-05-01T02:31:39.380Z,9.36
2023-05-01T02:34:06.848Z,9.40
2023-05-01T02:36:34.620Z,9.34
2023-05-01T02:39:02.732Z,9.69
2023-05-01T02:41:31.569Z,9.73
2023-05-01T02:44:05.083Z,9.91
2023-05-01T02:46:37.700Z,9.97
2023-05-01T02:49:06.848Z,9.99
2023-05-01T02:51:36.059Z,10.18
2023-05-01T02:54:04.145Z,10.21
2023-05-01T02:56:53.196Z,10.40
2023-05-01T02:59:37.827Z,10.60
2023-05-01T03:02:05.545Z,10.58
2023-05-01T03:04:33.043Z,10.53
2023-05-01T03:07:00.678Z,10.72
2023-05-01T03:09:29.808Z,10.70
2023-05-01T03:11:57.208Z,10.78
2023-05-01T03:18:55.992Z,10.90
2023-05-01T03:21:23.906Z,10.77
2023-05-01T03:23:51.245Z,10.85
2023-05-01T03:26:18.693Z,10.80
2023-05-01T03:28:47.007Z,10.60
2023-05-01T03:31:29.750Z,10.66
2023-05-01T03:33:58.737Z,10.74
2023-05-01T03:36:26.208Z,10.59
2023-05-01T03:39:09.064Z,10.74
2023-05-01T03:41:36.597Z,10.69
2023-05-01T03:44:15.008Z,10.53
2023-05-01T03:53:53.107Z,10.69
2023-05-01T03:56:25.988Z,10.72
2023-05-01T03:58:55.686Z,10.67
2023-05-01T04:01:23.049Z,10.84
2023-05-01T04:24:40.377Z,10.55
2023-05-01T04:27:09.186Z,10.44
2023-05-01T04:29:37.226Z,10.55
2023-05-01T04:32:05.363Z,10.47
2023-05-01T04:34:33.370Z,10.49
2023-05-01T04:37:02.173Z,10.37
2023-05-01T04:40:17.020Z,10.36
2023-05-01T04:42:44.514Z,10.18
2023-05-01T04:45:16.140Z,10.26
2023-05-01T04:47:44.123Z,10.16
2023-05-01T04:50:12.045Z,10.37
2023-05-01T04:52:39.844Z,10.39
2023-05-01T04:55:08.215Z,10.43
2023-05-01T05:01:47.379Z,10.60
2023-05-01T05:14:35.275Z,10.42
2023-05-01T05:17:02.544Z,10.71
2023-05-01T05:19:43.027Z,10.72
2023-05-01T05:25:11.842Z,11.11
2023-05-01T05:55:28.711Z,11.11
2023-05-01T05:57:56.239Z,11.22
2023-05-01T06:14:43.847Z,11.76
2023-05-01T06:20:31.646Z,11.36
2023-05-01T06:22:59.434Z,11.06
2023-05-01T06:25:26.910Z,11.08
2023-05-01T07:06:22.960Z,11.78
2023-05-01T07:15:45.948Z,11.16
2023-05-01T07:18:17.750Z,11.18
2023-05-01T07:20:45.853Z,11.18
2023-05-01T07:27:10.677Z,11.48
2023-05-01T07:29:41.432Z,11.56
2023-05-01T07:32:09.051Z,11.86
2023-05-01T07:34:36.967Z,11.77
2023-05-01T07:37:05.193Z,11.41
2023-05-01T07:39:32.766Z,11.22
2023-05-01T07:45:27.177Z,10.99
2023-05-01T07:47:54.490Z,11.07
2023-05-01T07:50:22.965Z,11.15
2023-05-01T07:52:50.698Z,11.13
2023-05-01T07:55:19.447Z,11.15
2023-05-01T07:57:47.073Z,11.31
2023-05-01T08:00:15.077Z,11.18
2023-05-01T08:02:42.618Z,11.01
2023-05-01T08:05:10.587Z,11.16
2023-05-01T08:07:41.277Z,11.14
2023-05-01T08:13:35.398Z,10.89
2023-05-01T08:16:27.271Z,10.75
2023-05-01T08:18:54.835Z,10.62
2023-05-01T08:25:37.702Z,10.79
2023-05-01T08:28:16.250Z,10.49
2023-05-01T08:30:44.742Z,10.42
2023-05-01T08:33:13.724Z,10.32
2023-05-01T08:35:41.551Z,10.33
2023-05-01T08:38:09.239Z,10.39
2023-05-01T08:40:41.144Z,10.35
2023-05-01T08:43:08.835Z,10.12
2023-05-01T08:46:19.658Z,10.39
2023-05-01T08:48:48.111Z,10.33
2023-05-01T08:51:50.188Z,10.53
2023-05-01T08:54:20.060Z,10.09
2023-05-01T08:56:48.492Z,10.53
2023-05-01T08:59:16.996Z,10.65
2023-05-01T09:01:47.524Z,10.48
2023-05-01T09:04:32.912Z,10.50
2023-05-01T09:07:04.307Z,10.73
2023-05-01T09:09:53.967Z,11.19
2023-05-01T09:12:30.466Z,10.93
2023-05-01T09:14:58.354Z,10.88
2023-05-01T09:21:36.145Z,10.84
2023-05-01T09:24:06.558Z,10.36
2023-05-01T09:26:37.092Z,10.54
2023-05-01T09:29:12.283Z,10.65
2023-05-01T09:31:40.460Z,10.78
2023-05-01T09:34:09.742Z,10.59
2023-05-01T09:40:11.815Z,13.29
2023-05-01T09:43:18.176Z,15.98
2023-05-01T09:46:02.035Z,20.30
2023-05-01T09:48:32.075Z,20.52
2023-05-01T09:51:50.229Z,18.41
2023-05-01T09:54:42.087Z,17.25
2023-05-01T12:14:56.706Z,10.75
2023-05-01T12:42:17.051Z,10.47
2023-05-01T12:45:02.001Z,10.26
2023-05-01T12:47:39.174Z,9.78
2023-05-01T13:11:34.816Z,9.50
2023-05-01T13:14:32.957Z,9.30
2023-05-01T13:17:48.898Z,9.25
2023-05-01T13:23:56.504Z,9.13
2023-05-01T13:30:04.964Z,9.08
2023-05-01T13:35:58.928Z,9.27
2023-05-01T13:49:34.784Z,8.93
2023-05-01T14:09:19.311Z,8.49
2023-05-01T16:36:55.114Z,7.85
2023-05-01T16:39:23.391Z,8.10
2023-05-01T16:41:55.048Z,7.84
2023-05-01T16:44:23.419Z,7.65
2023-05-01T16:46:56.741Z,7.96
2023-05-01T16:49:27.865Z,7.90
2023-05-01T16:55:22.607Z,7.67
2023-05-01T16:57:49.947Z,7.73
2023-05-01T17:00:17.496Z,7.70
2023-05-01T17:02:45.241Z,7.51
2023-05-01T17:05:12.700Z,7.61
2023-05-01T17:07:40.083Z,7.77
2023-05-01T17:10:08.352Z,7.78
2023-05-01T17:12:35.632Z,7.52
2023-05-01T17:15:03.045Z,7.59
2023-05-01T17:17:31.131Z,7.42
2023-05-01T17:20:01.439Z,7.48
2023-05-01T17:22:29.280Z,7.60
2023-05-01T17:25:00.687Z,7.72
2023-05-01T17:27:31.604Z,7.42
2023-05-01T17:29:59.223Z,7.55
2023-05-01T17:32:36.349Z,7.45
2023-05-01T17:35:06.622Z,7.57
2023-05-01T17:37:34.407Z,7.48
2023-05-01T17:40:03.375Z,7.36
2023-05-01T17:43:13.947Z,7.51
2023-05-01T17:45:41.135Z,7.29
2023-05-01T17:48:08.600Z,7.37
2023-05-01T17:50:38.751Z,7.37
2023-05-01T17:53:14.803Z,7.38
2023-05-01T17:55:45.199Z,7.36
2023-05-01T17:58:15.699Z,7.69
2023-05-01T18:00:49.920Z,7.66
2023-05-01T18:03:17.518Z,7.89
2023-05-01T18:05:45.449Z,7.71
2023-05-01T18:08:12.880Z,7.51
2023-05-01T18:10:40.394Z,7.47
2023-05-01T18:13:07.764Z,7.43
2023-05-01T18:15:36.886Z,7.34
2023-05-01T18:18:04.487Z,7.48
2023-05-01T18:20:31.905Z,7.30
2023-05-01T18:22:59.216Z,7.34
2023-05-01T18:25:26.622Z,7.53
2023-05-01T18:27:56.511Z,7.67
2023-05-01T18:30:25.911Z,7.49
2023-05-01T18:32:54.138Z,7.50
2023-05-01T18:35:21.887Z,7.62
2023-05-01T18:37:54.202Z,7.53
2023-05-01T18:40:21.647Z,7.53
2023-05-01T18:42:48.975Z,7.68
2023-05-01T18:45:16.293Z,7.61
2023-05-01T18:47:43.753Z,7.53
2023-05-01T18:53:37.869Z,7.71
2023-05-01T18:56:27.873Z,7.69
2023-05-01T18:59:03.827Z,7.20
2023-05-01T19:04:58.420Z,7.35
2023-05-01T19:11:06.272Z,7.59
2023-05-01T19:13:34.001Z,7.67
2023-05-01T19:16:01.311Z,7.66
2023-05-01T19:18:48.762Z,7.67
2023-05-01T19:21:16.220Z,7.54
2023-05-01T19:23:43.530Z,7.51
2023-05-01T19:26:13.173Z,7.31
2023-05-01T19:28:42.140Z,7.19
2023-05-01T19:31:11.030Z,7.17
2023-05-01T19:33:39.090Z,7.16
2023-05-01T19:36:06.424Z,7.19
2023-05-01T19:38:34.250Z,7.18
2023-05-01T19:41:01.697Z,7.11
2023-05-01T19:43:28.868Z,7.16
2023-05-01T19:45:56.949Z,7.09
2023-05-01T19:48:24.638Z,6.99
2023-05-01T19:50:52.120Z,7.06
2023-05-01T19:53:19.488Z,7.20
2023-05-01T19:55:48.099Z,7.12
2023-05-01T19:58:15.904Z,7.14
2023-05-01T20:00:44.255Z,7.10
2023-05-01T20:03:11.704Z,7.03
2023-05-01T20:05:39.364Z,7.10
2023-05-01T20:08:06.583Z,6.98
2023-05-01T20:10:33.951Z,7.09
2023-05-01T20:13:01.823Z,7.11
2023-05-01T20:15:29.171Z,7.04
2023-05-01T20:17:56.545Z,6.90
2023-05-01T20:20:23.835Z,7.14
2023-05-01T20:22:52.714Z,7.23
2023-05-01T20:28:44.774Z,7.21
2023-05-01T20:31:12.693Z,7.32
2023-05-01T20:33:40.352Z,7.25
2023-05-01T20:36:07.899Z,7.12
2023-05-01T20:38:42.399Z,6.91
2023-05-01T20:41:10.570Z,6.93
2023-05-01T20:43:39.107Z,6.75
2023-05-01T20:46:06.959Z,6.92
2023-05-01T20:48:34.401Z,6.80
2023-05-01T20:51:01.772Z,6.96
2023-05-01T20:53:28.932Z,6.86
2023-05-01T20:55:56.253Z,7.18
2023-05-01T20:58:23.736Z,7.13
2023-05-01T21:00:54.476Z,7.16
2023-05-01T21:03:23.955Z,7.16
2023-05-01T21:05:51.302Z,7.15
2023-05-01T21:08:19.662Z,7.27
2023-05-01T21:10:46.776Z,7.17
2023-05-01T21:13:15.521Z,7.21
2023-05-01T21:15:42.765Z,7.09
2023-05-01T21:18:14.606Z,7.14
2023-05-01T21:20:42.821Z,7.21
2023-05-01T21:23:10.107Z,7.22
2023-05-01T21:25:37.302Z,7.35
2023-05-01T21:28:06.536Z,7.29
2023-05-01T21:30:35.947Z,7.10
2023-05-01T21:33:05.850Z,7.00
2023-05-01T21:35:33.505Z,7.03
2023-05-01T21:38:01.508Z,7.08
2023-05-01T21:40:28.869Z,6.88
2023-05-01T21:42:56.615Z,6.98
2023-05-01T21:45:25.017Z,6.99
2023-05-01T21:47:52.542Z,6.90
2023-05-01T21:50:21.570Z,6.85
2023-05-01T21:52:50.693Z,6.95
2023-05-01T21:55:20.384Z,6.92
2023-05-01T21:57:50.162Z,6.88
2023-05-01T22:00:19.421Z,6.67
2023-05-01T22:02:48.832Z,6.64
2023-05-01T22:05:18.150Z,6.70
2023-05-01T22:07:47.473Z,6.62
2023-05-01T22:10:17.360Z,6.65
2023-05-01T22:12:45.602Z,6.79
2023-05-01T22:15:14.454Z,6.79
2023-05-01T22:17:42.225Z,6.70
2023-05-01T22:20:09.698Z,6.52
2023-05-01T22:22:38.339Z,6.60
2023-05-01T22:25:06.348Z,6.67
2023-05-01T22:27:34.188Z,6.59
2023-05-01T22:30:02.536Z,6.55
2023-05-01T22:32:30.069Z,6.56
2023-05-01T22:34:57.247Z,6.61
2023-05-01T22:37:25.928Z,6.58
2023-05-01T22:39:53.970Z,6.47
2023-05-01T22:42:21.782Z,6.54
2023-05-01T22:44:49.744Z,6.38
2023-05-01T22:47:17.158Z,6.33
2023-05-01T22:49:44.300Z,6.18
2023-05-01T22:52:11.490Z,6.23
2023-05-01T22:54:38.638Z,6.25
2023-05-01T22:57:05.964Z,6.38
2023-05-01T22:59:33.377Z,6.33
2023-05-01T23:02:04.649Z,6.21
2023-05-01T23:04:32.561Z,6.09
2023-05-01T23:07:00.000Z,6.12
2023-05-01T23:09:27.222Z,6.15
2023-05-01T23:11:54.512Z,6.14
2023-05-01T23:14:21.769Z,6.22
2023-05-01T23:16:49.002Z,6.20
2023-05-01T23:19:24.193Z,6.37
2023-05-01T23:22:01.967Z,6.33
2023-05-01T23:24:44.890Z,6.30
2023-05-01T23:27:13.781Z,6.16
2023-05-01T23:29:41.811Z,6.14
2023-05-01T23:32:11.848Z,6.17
2023-05-01T23:34:40.603Z,6.26
2023-05-01T23:37:07.775Z,6.27
2023-05-01T23:39:34.887Z,6.47
2023-05-01T23:42:02.729Z,6.47
2023-05-01T23:44:30.648Z,6.30
2023-05-01T23:46:58.001Z,6.51
2023-05-01T23:49:25.472Z,6.79
2023-05-01T23:51:52.726Z,7.01
2023-05-01T23:54:19.983Z,7.04
2023-05-01T23:56:47.241Z,6.83
2023-05-01T23:59:15.142Z,6.59
